sensor_id;sensor_type;location;lat;lon;timestamp;temperature;humidity
810;DHT22;387;48.772;9.186;2023-12-29T00:01:58;10.30;77.10
810;DHT22;387;48.772;9.186;2023-12-29T00:04:25;10.40;76.50
810;DHT22;387;48.772;9.186;2023-12-29T00:06:51;10.40;76.20
810;DHT22;387;48.772;9.186;2023-12-29T00:09:16;10.50;76.10
810;DHT22;387;48.772;9.186;2023-12-29T00:11:43;10.60;75.70
810;DHT22;387;48.772;9.186;2023-12-29T00:14:08;10.60;75.50
810;DHT22;387;48.772;9.186;2023-12-29T00:16:34;10.60;75.70
810;DHT22;387;48.772;9.186;2023-12-29T00:18:59;10.60;75.80
810;DHT22;387;48.772;9.186;2023-12-29T00:21:25;10.60;75.50
810;DHT22;387;48.772;9.186;2023-12-29T00:23:50;10.70;75.20
810;DHT22;387;48.772;9.186;2023-12-29T00:26:17;10.70;75.40
810;DHT22;387;48.772;9.186;2023-12-29T00:28:43;10.70;75.40
810;DHT22;387;48.772;9.186;2023-12-29T00:31:18;10.60;75.20
810;DHT22;387;48.772;9.186;2023-12-29T00:33:44;10.60;75.40
810;DHT22;387;48.772;9.186;2023-12-29T00:36:16;10.60;75.40
810;DHT22;387;48.772;9.186;2023-12-29T00:38:42;10.60;75.50
810;DHT22;387;48.772;9.186;2023-12-29T00:41:08;10.60;75.40
810;DHT22;387;48.772;9.186;2023-12-29T00:43:34;10.60;75.20
810;DHT22;387;48.772;9.186;2023-12-29T00:46:04;10.60;75.10
810;DHT22;387;48.772;9.186;2023-12-29T00:48:33;10.60;75.20
810;DHT22;387;48.772;9.186;2023-12-29T00:51:01;10.60;74.90
810;DHT22;387;48.772;9.186;2023-12-29T00:53:27;10.60;74.90
810;DHT22;387;48.772;9.186;2023-12-29T00:55:54;10.60;74.90
810;DHT22;387;48.772;9.186;2023-12-29T00:58:20;10.60;74.90
810;DHT22;387;48.772;9.186;2023-12-29T01:00:45;10.60;75.10
810;DHT22;387;48.772;9.186;2023-12-29T01:03:11;10.60;75.10
810;DHT22;387;48.772;9.186;2023-12-29T01:05:36;10.70;75.10
810;DHT22;387;48.772;9.186;2023-12-29T01:08:02;10.70;74.90
810;DHT22;387;48.772;9.186;2023-12-29T01:10:28;10.70;74.80
810;DHT22;387;48.772;9.186;2023-12-29T01:12:53;10.70;74.90
810;DHT22;387;48.772;9.186;2023-12-29T01:15:19;10.60;74.90
810;DHT22;387;48.772;9.186;2023-12-29T01:17:44;10.60;74.80
810;DHT22;387;48.772;9.186;2023-12-29T01:20:10;10.70;74.60
810;DHT22;387;48.772;9.186;2023-12-29T01:22:36;10.70;74.60
810;DHT22;387;48.772;9.186;2023-12-29T01:25:01;10.70;74.30
810;DHT22;387;48.772;9.186;2023-12-29T01:27:28;10.70;74.20
810;DHT22;387;48.772;9.186;2023-12-29T01:29:54;10.70;74.00
810;DHT22;387;48.772;9.186;2023-12-29T01:32:21;10.70;73.90
810;DHT22;387;48.772;9.186;2023-12-29T01:34:47;10.60;74.00
810;DHT22;387;48.772;9.186;2023-12-29T01:37:13;10.60;74.00
810;DHT22;387;48.772;9.186;2023-12-29T01:39:38;10.60;74.00
810;DHT22;387;48.772;9.186;2023-12-29T01:42:05;10.60;73.90
810;DHT22;387;48.772;9.186;2023-12-29T01:44:32;10.60;74.00
810;DHT22;387;48.772;9.186;2023-12-29T01:47:01;10.60;73.90
810;DHT22;387;48.772;9.186;2023-12-29T01:49:28;10.70;73.70
810;DHT22;387;48.772;9.186;2023-12-29T01:51:58;10.70;73.70
810;DHT22;387;48.772;9.186;2023-12-29T01:54:33;10.70;73.70
810;DHT22;387;48.772;9.186;2023-12-29T01:57:00;10.70;73.50
810;DHT22;387;48.772;9.186;2023-12-29T01:59:28;10.80;73.60
810;DHT22;387;48.772;9.186;2023-12-29T02:01:55;10.70;73.50
810;DHT22;387;48.772;9.186;2023-12-29T02:04:24;10.70;73.60
810;DHT22;387;48.772;9.186;2023-12-29T02:06:51;10.70;73.60
810;DHT22;387;48.772;9.186;2023-12-29T02:09:17;10.70;73.60
810;DHT22;387;48.772;9.186;2023-12-29T02:11:44;10.70;73.90
810;DHT22;387;48.772;9.186;2023-12-29T02:14:10;10.60;74.00
810;DHT22;387;48.772;9.186;2023-12-29T02:19:41;10.60;74.20
810;DHT22;387;48.772;9.186;2023-12-29T02:22:10;10.60;74.30
810;DHT22;387;48.772;9.186;2023-12-29T02:24:36;10.60;74.30
810;DHT22;387;48.772;9.186;2023-12-29T02:30:30;10.60;74.50
810;DHT22;387;48.772;9.186;2023-12-29T02:33:04;10.70;74.20
810;DHT22;387;48.772;9.186;2023-12-29T02:35:34;10.70;74.00
810;DHT22;387;48.772;9.186;2023-12-29T02:38:01;10.70;74.00
810;DHT22;387;48.772;9.186;2023-12-29T02:40:27;10.70;74.00
810;DHT22;387;48.772;9.186;2023-12-29T02:42:53;10.70;73.90
810;DHT22;387;48.772;9.186;2023-12-29T02:45:19;10.70;73.90
810;DHT22;387;48.772;9.186;2023-12-29T02:47:45;10.70;73.90
810;DHT22;387;48.772;9.186;2023-12-29T02:50:11;10.70;73.90
810;DHT22;387;48.772;9.186;2023-12-29T02:52:37;10.60;74.30
810;DHT22;387;48.772;9.186;2023-12-29T02:55:03;10.60;75.10
810;DHT22;387;48.772;9.186;2023-12-29T02:57:29;10.60;75.40
810;DHT22;387;48.772;9.186;2023-12-29T02:59:55;10.50;75.80
810;DHT22;387;48.772;9.186;2023-12-29T03:02:22;10.40;76.40
810;DHT22;387;48.772;9.186;2023-12-29T03:04:47;10.40;76.50
810;DHT22;387;48.772;9.186;2023-12-29T03:07:13;10.40;76.80
810;DHT22;387;48.772;9.186;2023-12-29T03:09:38;10.40;77.30
810;DHT22;387;48.772;9.186;2023-12-29T03:12:05;10.30;77.40
810;DHT22;387;48.772;9.186;2023-12-29T03:14:31;10.30;77.60
810;DHT22;387;48.772;9.186;2023-12-29T03:16:57;10.30;77.60
810;DHT22;387;48.772;9.186;2023-12-29T03:19:22;10.30;77.70
810;DHT22;387;48.772;9.186;2023-12-29T03:21:48;10.30;77.80
810;DHT22;387;48.772;9.186;2023-12-29T03:24:14;10.30;77.80
810;DHT22;387;48.772;9.186;2023-12-29T03:26:39;10.20;78.00
810;DHT22;387;48.772;9.186;2023-12-29T03:29:05;10.20;78.30
810;DHT22;387;48.772;9.186;2023-12-29T03:31:30;10.20;78.30
810;DHT22;387;48.772;9.186;2023-12-29T03:33:56;10.20;78.40
810;DHT22;387;48.772;9.186;2023-12-29T03:36:22;10.10;78.70
810;DHT22;387;48.772;9.186;2023-12-29T03:38:47;10.10;79.00
810;DHT22;387;48.772;9.186;2023-12-29T03:41:13;10.10;79.20
810;DHT22;387;48.772;9.186;2023-12-29T03:43:39;10.10;79.50
810;DHT22;387;48.772;9.186;2023-12-29T03:46:15;10.10;79.50
810;DHT22;387;48.772;9.186;2023-12-29T03:48:41;10.10;79.60
810;DHT22;387;48.772;9.186;2023-12-29T03:51:07;10.00;79.60
810;DHT22;387;48.772;9.186;2023-12-29T03:53:33;10.00;79.70
810;DHT22;387;48.772;9.186;2023-12-29T03:55:58;10.00;79.70
810;DHT22;387;48.772;9.186;2023-12-29T03:58:24;10.00;79.90
810;DHT22;387;48.772;9.186;2023-12-29T04:00:49;10.00;79.90
810;DHT22;387;48.772;9.186;2023-12-29T04:03:15;10.00;79.90
810;DHT22;387;48.772;9.186;2023-12-29T04:05:40;10.00;79.90
810;DHT22;387;48.772;9.186;2023-12-29T04:08:06;9.90;80.20
810;DHT22;387;48.772;9.186;2023-12-29T04:10:32;10.00;80.20
810;DHT22;387;48.772;9.186;2023-12-29T04:12:57;10.00;80.20
810;DHT22;387;48.772;9.186;2023-12-29T04:15:23;10.00;80.20
810;DHT22;387;48.772;9.186;2023-12-29T04:17:49;10.00;80.20
810;DHT22;387;48.772;9.186;2023-12-29T04:20:14;10.00;80.30
810;DHT22;387;48.772;9.186;2023-12-29T04:22:40;10.00;80.50
810;DHT22;387;48.772;9.186;2023-12-29T04:25:05;10.00;80.60
810;DHT22;387;48.772;9.186;2023-12-29T04:27:31;9.90;80.60
810;DHT22;387;48.772;9.186;2023-12-29T04:29:57;9.90;80.80
810;DHT22;387;48.772;9.186;2023-12-29T04:32:22;9.90;80.90
810;DHT22;387;48.772;9.186;2023-12-29T04:34:48;9.90;80.90
810;DHT22;387;48.772;9.186;2023-12-29T04:37:13;10.00;80.90
810;DHT22;387;48.772;9.186;2023-12-29T04:39:39;9.90;81.10
810;DHT22;387;48.772;9.186;2023-12-29T04:42:05;9.90;81.40
810;DHT22;387;48.772;9.186;2023-12-29T04:44:30;9.90;81.40
810;DHT22;387;48.772;9.186;2023-12-29T04:46:56;9.90;81.40
810;DHT22;387;48.772;9.186;2023-12-29T04:49:21;9.90;81.50
810;DHT22;387;48.772;9.186;2023-12-29T04:51:47;9.90;81.50
810;DHT22;387;48.772;9.186;2023-12-29T04:54:14;9.90;81.70
810;DHT22;387;48.772;9.186;2023-12-29T04:56:39;10.00;81.70
810;DHT22;387;48.772;9.186;2023-12-29T04:59:05;10.00;81.70
810;DHT22;387;48.772;9.186;2023-12-29T05:01:30;10.00;81.70
810;DHT22;387;48.772;9.186;2023-12-29T05:03:56;10.00;81.70
810;DHT22;387;48.772;9.186;2023-12-29T05:06:22;10.00;81.80
810;DHT22;387;48.772;9.186;2023-12-29T05:08:47;10.00;81.80
810;DHT22;387;48.772;9.186;2023-12-29T05:11:13;10.00;81.80
810;DHT22;387;48.772;9.186;2023-12-29T05:13:38;10.00;81.80
810;DHT22;387;48.772;9.186;2023-12-29T05:16:05;10.00;81.80
810;DHT22;387;48.772;9.186;2023-12-29T05:18:30;10.00;81.80
810;DHT22;387;48.772;9.186;2023-12-29T05:20:56;10.10;81.80
810;DHT22;387;48.772;9.186;2023-12-29T05:23:21;10.10;81.80
810;DHT22;387;48.772;9.186;2023-12-29T05:25:47;10.10;81.80
810;DHT22;387;48.772;9.186;2023-12-29T05:28:12;10.10;82.10
810;DHT22;387;48.772;9.186;2023-12-29T05:30:38;10.00;82.70
810;DHT22;387;48.772;9.186;2023-12-29T05:33:04;9.90;83.40
810;DHT22;387;48.772;9.186;2023-12-29T05:35:29;9.80;83.80
810;DHT22;387;48.772;9.186;2023-12-29T05:37:55;9.80;84.00
810;DHT22;387;48.772;9.186;2023-12-29T05:40:21;9.80;84.30
810;DHT22;387;48.772;9.186;2023-12-29T05:42:46;9.70;84.60
810;DHT22;387;48.772;9.186;2023-12-29T05:45:12;9.70;84.90
810;DHT22;387;48.772;9.186;2023-12-29T05:47:37;9.70;85.00
810;DHT22;387;48.772;9.186;2023-12-29T05:50:03;9.70;85.20
810;DHT22;387;48.772;9.186;2023-12-29T05:52:29;9.70;85.30
810;DHT22;387;48.772;9.186;2023-12-29T05:54:55;9.70;85.20
810;DHT22;387;48.772;9.186;2023-12-29T05:57:20;9.70;85.20
810;DHT22;387;48.772;9.186;2023-12-29T05:59:46;9.70;85.30
810;DHT22;387;48.772;9.186;2023-12-29T06:02:12;9.60;85.50
810;DHT22;387;48.772;9.186;2023-12-29T06:04:37;9.60;85.50
810;DHT22;387;48.772;9.186;2023-12-29T06:07:03;9.60;85.50
810;DHT22;387;48.772;9.186;2023-12-29T06:09:28;9.60;85.50
810;DHT22;387;48.772;9.186;2023-12-29T06:11:54;9.60;85.50
810;DHT22;387;48.772;9.186;2023-12-29T06:14:20;9.70;85.30
810;DHT22;387;48.772;9.186;2023-12-29T06:16:45;9.70;85.30
810;DHT22;387;48.772;9.186;2023-12-29T06:19:11;9.70;85.00
810;DHT22;387;48.772;9.186;2023-12-29T06:21:43;9.70;85.00
810;DHT22;387;48.772;9.186;2023-12-29T06:24:09;9.70;85.20
810;DHT22;387;48.772;9.186;2023-12-29T06:26:35;9.70;85.30
810;DHT22;387;48.772;9.186;2023-12-29T06:29:01;9.60;85.50
810;DHT22;387;48.772;9.186;2023-12-29T06:31:26;9.60;85.70
810;DHT22;387;48.772;9.186;2023-12-29T06:33:52;9.60;85.90
810;DHT22;387;48.772;9.186;2023-12-29T06:36:17;9.60;85.70
810;DHT22;387;48.772;9.186;2023-12-29T06:38:43;9.60;85.60
810;DHT22;387;48.772;9.186;2023-12-29T06:41:14;9.70;85.60
810;DHT22;387;48.772;9.186;2023-12-29T06:43:39;9.70;85.50
810;DHT22;387;48.772;9.186;2023-12-29T06:46:05;9.70;85.30
810;DHT22;387;48.772;9.186;2023-12-29T06:48:31;9.80;85.30
810;DHT22;387;48.772;9.186;2023-12-29T06:50:57;9.80;85.30
810;DHT22;387;48.772;9.186;2023-12-29T06:53:23;9.80;85.50
810;DHT22;387;48.772;9.186;2023-12-29T06:55:48;9.80;85.30
810;DHT22;387;48.772;9.186;2023-12-29T06:58:14;9.80;85.20
810;DHT22;387;48.772;9.186;2023-12-29T07:00:39;9.80;85.20
810;DHT22;387;48.772;9.186;2023-12-29T07:03:05;9.80;85.30
810;DHT22;387;48.772;9.186;2023-12-29T07:05:31;9.80;85.00
810;DHT22;387;48.772;9.186;2023-12-29T07:07:57;9.80;85.00
810;DHT22;387;48.772;9.186;2023-12-29T07:10:23;9.90;85.00
810;DHT22;387;48.772;9.186;2023-12-29T07:12:48;9.90;84.90
810;DHT22;387;48.772;9.186;2023-12-29T07:15:14;9.90;85.00
810;DHT22;387;48.772;9.186;2023-12-29T07:17:40;10.00;84.70
810;DHT22;387;48.772;9.186;2023-12-29T07:20:06;9.90;85.00
810;DHT22;387;48.772;9.186;2023-12-29T07:22:32;9.90;85.20
810;DHT22;387;48.772;9.186;2023-12-29T07:24:58;9.90;85.20
810;DHT22;387;48.772;9.186;2023-12-29T07:27:24;9.90;85.50
810;DHT22;387;48.772;9.186;2023-12-29T07:29:49;9.80;85.70
810;DHT22;387;48.772;9.186;2023-12-29T07:32:15;9.80;85.90
810;DHT22;387;48.772;9.186;2023-12-29T07:34:40;9.70;86.00
810;DHT22;387;48.772;9.186;2023-12-29T07:37:06;9.70;86.00
810;DHT22;387;48.772;9.186;2023-12-29T07:39:32;9.80;85.90
810;DHT22;387;48.772;9.186;2023-12-29T07:41:58;9.80;85.50
810;DHT22;387;48.772;9.186;2023-12-29T07:44:23;9.80;85.50
810;DHT22;387;48.772;9.186;2023-12-29T07:46:49;9.90;85.50
810;DHT22;387;48.772;9.186;2023-12-29T07:49:14;9.90;85.30
810;DHT22;387;48.772;9.186;2023-12-29T07:51:41;10.00;85.20
810;DHT22;387;48.772;9.186;2023-12-29T07:54:08;9.90;85.20
810;DHT22;387;48.772;9.186;2023-12-29T07:56:34;9.90;85.30
810;DHT22;387;48.772;9.186;2023-12-29T07:58:59;10.00;85.50
810;DHT22;387;48.772;9.186;2023-12-29T08:01:26;10.00;85.50
810;DHT22;387;48.772;9.186;2023-12-29T08:03:52;10.00;85.30
810;DHT22;387;48.772;9.186;2023-12-29T08:06:18;10.00;85.30
810;DHT22;387;48.772;9.186;2023-12-29T08:08:43;10.00;85.30
810;DHT22;387;48.772;9.186;2023-12-29T08:11:15;10.10;85.00
810;DHT22;387;48.772;9.186;2023-12-29T08:13:44;10.10;85.00
810;DHT22;387;48.772;9.186;2023-12-29T08:16:10;10.20;84.90
810;DHT22;387;48.772;9.186;2023-12-29T08:18:36;10.20;84.60
810;DHT22;387;48.772;9.186;2023-12-29T08:21:02;10.20;84.70
810;DHT22;387;48.772;9.186;2023-12-29T08:23:28;10.20;84.60
810;DHT22;387;48.772;9.186;2023-12-29T08:25:53;10.30;84.60
810;DHT22;387;48.772;9.186;2023-12-29T08:28:19;10.20;84.60
810;DHT22;387;48.772;9.186;2023-12-29T08:30:45;10.20;84.70
810;DHT22;387;48.772;9.186;2023-12-29T08:33:11;10.20;84.70
810;DHT22;387;48.772;9.186;2023-12-29T08:35:40;10.10;84.70
810;DHT22;387;48.772;9.186;2023-12-29T08:38:06;10.30;84.90
810;DHT22;387;48.772;9.186;2023-12-29T08:40:31;10.20;84.60
810;DHT22;387;48.772;9.186;2023-12-29T08:42:57;10.30;84.70
810;DHT22;387;48.772;9.186;2023-12-29T08:45:23;10.30;84.70
810;DHT22;387;48.772;9.186;2023-12-29T08:47:48;10.30;84.60
810;DHT22;387;48.772;9.186;2023-12-29T08:50:14;10.30;84.60
810;DHT22;387;48.772;9.186;2023-12-29T08:52:40;10.30;84.60
810;DHT22;387;48.772;9.186;2023-12-29T08:55:06;10.40;84.60
810;DHT22;387;48.772;9.186;2023-12-29T08:57:32;10.40;84.30
810;DHT22;387;48.772;9.186;2023-12-29T08:59:57;10.40;84.30
810;DHT22;387;48.772;9.186;2023-12-29T09:02:23;10.40;84.00
810;DHT22;387;48.772;9.186;2023-12-29T09:04:49;10.40;84.00
810;DHT22;387;48.772;9.186;2023-12-29T09:07:14;10.40;84.00
810;DHT22;387;48.772;9.186;2023-12-29T09:09:40;10.50;83.70
810;DHT22;387;48.772;9.186;2023-12-29T09:12:05;10.50;83.70
810;DHT22;387;48.772;9.186;2023-12-29T09:14:31;10.50;83.60
810;DHT22;387;48.772;9.186;2023-12-29T09:17:00;10.50;83.30
810;DHT22;387;48.772;9.186;2023-12-29T09:19:25;10.60;83.10
810;DHT22;387;48.772;9.186;2023-12-29T09:21:51;10.60;83.00
810;DHT22;387;48.772;9.186;2023-12-29T09:24:16;10.70;82.80
810;DHT22;387;48.772;9.186;2023-12-29T09:26:42;10.70;82.50
810;DHT22;387;48.772;9.186;2023-12-29T09:29:08;10.80;82.70
810;DHT22;387;48.772;9.186;2023-12-29T09:31:33;10.80;82.50
810;DHT22;387;48.772;9.186;2023-12-29T09:33:59;10.90;82.40
810;DHT22;387;48.772;9.186;2023-12-29T09:36:25;10.90;82.40
810;DHT22;387;48.772;9.186;2023-12-29T09:38:51;10.90;82.50
810;DHT22;387;48.772;9.186;2023-12-29T09:41:20;11.00;82.80
810;DHT22;387;48.772;9.186;2023-12-29T09:43:48;10.90;82.80
810;DHT22;387;48.772;9.186;2023-12-29T09:46:16;10.80;83.10
810;DHT22;387;48.772;9.186;2023-12-29T09:48:45;10.80;83.10
810;DHT22;387;48.772;9.186;2023-12-29T09:51:13;10.70;83.40
810;DHT22;387;48.772;9.186;2023-12-29T09:53:40;10.70;83.60
810;DHT22;387;48.772;9.186;2023-12-29T09:56:08;10.70;83.70
810;DHT22;387;48.772;9.186;2023-12-29T09:58:35;10.70;83.40
810;DHT22;387;48.772;9.186;2023-12-29T10:01:03;10.80;83.30
810;DHT22;387;48.772;9.186;2023-12-29T10:03:30;10.80;83.30
810;DHT22;387;48.772;9.186;2023-12-29T10:05:56;10.80;83.10
810;DHT22;387;48.772;9.186;2023-12-29T10:08:24;10.90;83.10
810;DHT22;387;48.772;9.186;2023-12-29T10:10:51;10.90;82.80
810;DHT22;387;48.772;9.186;2023-12-29T10:13:18;10.90;83.00
810;DHT22;387;48.772;9.186;2023-12-29T10:18:55;10.90;82.70
810;DHT22;387;48.772;9.186;2023-12-29T10:21:45;11.00;82.20
810;DHT22;387;48.772;9.186;2023-12-29T10:24:20;11.10;81.70
810;DHT22;387;48.772;9.186;2023-12-29T10:26:47;11.10;81.40
810;DHT22;387;48.772;9.186;2023-12-29T10:29:12;11.10;81.40
810;DHT22;387;48.772;9.186;2023-12-29T10:31:38;11.10;81.40
810;DHT22;387;48.772;9.186;2023-12-29T10:34:23;11.20;81.10
810;DHT22;387;48.772;9.186;2023-12-29T10:36:56;11.20;80.90
810;DHT22;387;48.772;9.186;2023-12-29T10:39:22;11.20;80.60
810;DHT22;387;48.772;9.186;2023-12-29T10:41:48;11.20;80.30
810;DHT22;387;48.772;9.186;2023-12-29T10:44:13;11.30;80.00
810;DHT22;387;48.772;9.186;2023-12-29T10:46:39;11.40;79.30
810;DHT22;387;48.772;9.186;2023-12-29T10:49:12;11.50;78.40
810;DHT22;387;48.772;9.186;2023-12-29T10:51:39;11.60;78.00
810;DHT22;387;48.772;9.186;2023-12-29T10:54:05;11.60;77.30
810;DHT22;387;48.772;9.186;2023-12-29T10:56:32;11.70;77.10
810;DHT22;387;48.772;9.186;2023-12-29T10:59:02;11.70;76.70
810;DHT22;387;48.772;9.186;2023-12-29T11:01:37;11.90;76.50
810;DHT22;387;48.772;9.186;2023-12-29T11:04:05;11.90;76.40
810;DHT22;387;48.772;9.186;2023-12-29T11:06:41;11.90;76.40
810;DHT22;387;48.772;9.186;2023-12-29T11:09:10;11.90;76.40
810;DHT22;387;48.772;9.186;2023-12-29T11:11:37;11.90;76.20
810;DHT22;387;48.772;9.186;2023-12-29T11:14:03;11.90;75.80
810;DHT22;387;48.772;9.186;2023-12-29T11:16:29;11.90;76.20
810;DHT22;387;48.772;9.186;2023-12-29T11:18:58;11.90;75.80
810;DHT22;387;48.772;9.186;2023-12-29T11:21:26;12.00;75.40
810;DHT22;387;48.772;9.186;2023-12-29T11:23:52;12.00;75.40
810;DHT22;387;48.772;9.186;2023-12-29T11:26:18;12.00;75.10
810;DHT22;387;48.772;9.186;2023-12-29T11:28:48;12.00;75.10
810;DHT22;387;48.772;9.186;2023-12-29T11:31:18;12.00;74.80
810;DHT22;387;48.772;9.186;2023-12-29T11:33:52;12.10;74.80
810;DHT22;387;48.772;9.186;2023-12-29T11:36:23;12.10;74.60
810;DHT22;387;48.772;9.186;2023-12-29T11:44:25;12.10;74.30
810;DHT22;387;48.772;9.186;2023-12-29T11:46:56;12.20;74.00
810;DHT22;387;48.772;9.186;2023-12-29T11:49:22;12.20;72.60
810;DHT22;387;48.772;9.186;2023-12-29T11:51:49;12.20;72.60
810;DHT22;387;48.772;9.186;2023-12-29T11:54:26;12.20;72.30
810;DHT22;387;48.772;9.186;2023-12-29T11:56:56;12.30;72.10
810;DHT22;387;48.772;9.186;2023-12-29T11:59:23;12.30;72.30
810;DHT22;387;48.772;9.186;2023-12-29T12:01:57;12.40;71.70
810;DHT22;387;48.772;9.186;2023-12-29T12:04:40;12.50;71.80
810;DHT22;387;48.772;9.186;2023-12-29T12:10:18;12.60;70.70
810;DHT22;387;48.772;9.186;2023-12-29T12:12:40;12.60;71.00
810;DHT22;387;48.772;9.186;2023-12-29T12:17:52;12.60;69.70
810;DHT22;387;48.772;9.186;2023-12-29T12:20:18;12.50;69.70
810;DHT22;387;48.772;9.186;2023-12-29T12:22:45;12.50;69.80
810;DHT22;387;48.772;9.186;2023-12-29T12:25:15;12.50;69.50
810;DHT22;387;48.772;9.186;2023-12-29T12:27:41;12.50;69.10
810;DHT22;387;48.772;9.186;2023-12-29T12:30:07;12.50;68.30
810;DHT22;387;48.772;9.186;2023-12-29T12:32:35;12.60;68.60
810;DHT22;387;48.772;9.186;2023-12-29T12:35:01;12.60;68.80
810;DHT22;387;48.772;9.186;2023-12-29T12:37:28;12.60;68.80
810;DHT22;387;48.772;9.186;2023-12-29T12:39:55;12.60;68.90
810;DHT22;387;48.772;9.186;2023-12-29T12:42:22;12.70;68.50
810;DHT22;387;48.772;9.186;2023-12-29T12:45:11;12.70;67.90
810;DHT22;387;48.772;9.186;2023-12-29T12:47:44;12.80;67.70
810;DHT22;387;48.772;9.186;2023-12-29T12:50:13;12.80;67.70
810;DHT22;387;48.772;9.186;2023-12-29T12:52:39;12.80;68.50
810;DHT22;387;48.772;9.186;2023-12-29T12:55:06;12.80;68.50
810;DHT22;387;48.772;9.186;2023-12-29T12:57:33;12.90;68.50
810;DHT22;387;48.772;9.186;2023-12-29T13:00:03;12.90;68.60
810;DHT22;387;48.772;9.186;2023-12-29T13:02:30;13.00;68.30
810;DHT22;387;48.772;9.186;2023-12-29T13:04:57;13.00;68.50
810;DHT22;387;48.772;9.186;2023-12-29T13:07:25;13.00;68.80
810;DHT22;387;48.772;9.186;2023-12-29T13:09:52;13.00;68.80
810;DHT22;387;48.772;9.186;2023-12-29T13:12:18;13.00;68.60
810;DHT22;387;48.772;9.186;2023-12-29T13:14:45;13.00;68.20
810;DHT22;387;48.772;9.186;2023-12-29T13:17:14;13.00;67.90
810;DHT22;387;48.772;9.186;2023-12-29T13:19:46;13.00;67.70
810;DHT22;387;48.772;9.186;2023-12-29T13:22:12;12.90;67.60
810;DHT22;387;48.772;9.186;2023-12-29T13:24:44;13.00;67.00
810;DHT22;387;48.772;9.186;2023-12-29T13:27:11;13.00;66.90
810;DHT22;387;48.772;9.186;2023-12-29T13:29:38;13.00;66.90
810;DHT22;387;48.772;9.186;2023-12-29T13:32:19;12.90;66.30
810;DHT22;387;48.772;9.186;2023-12-29T13:37:23;12.90;66.10
810;DHT22;387;48.772;9.186;2023-12-29T13:42:27;12.80;66.10
810;DHT22;387;48.772;9.186;2023-12-29T13:44:56;12.70;66.30
810;DHT22;387;48.772;9.186;2023-12-29T13:47:22;12.80;66.10
810;DHT22;387;48.772;9.186;2023-12-29T13:49:50;12.80;66.40
810;DHT22;387;48.772;9.186;2023-12-29T13:52:16;12.70;66.30
810;DHT22;387;48.772;9.186;2023-12-29T13:54:43;12.70;66.10
810;DHT22;387;48.772;9.186;2023-12-29T13:57:10;12.70;66.40
810;DHT22;387;48.772;9.186;2023-12-29T13:59:36;12.70;66.40
810;DHT22;387;48.772;9.186;2023-12-29T14:02:23;12.70;66.60
810;DHT22;387;48.772;9.186;2023-12-29T14:05:05;12.70;66.30
810;DHT22;387;48.772;9.186;2023-12-29T14:07:32;12.70;66.10
810;DHT22;387;48.772;9.186;2023-12-29T14:09:59;12.70;66.00
810;DHT22;387;48.772;9.186;2023-12-29T14:12:25;12.70;66.10
810;DHT22;387;48.772;9.186;2023-12-29T14:14:51;12.70;66.00
810;DHT22;387;48.772;9.186;2023-12-29T14:17:23;12.70;65.70
810;DHT22;387;48.772;9.186;2023-12-29T14:19:49;12.60;65.80
810;DHT22;387;48.772;9.186;2023-12-29T14:22:22;12.70;66.00
810;DHT22;387;48.772;9.186;2023-12-29T14:25:11;12.70;66.00
810;DHT22;387;48.772;9.186;2023-12-29T14:27:38;12.70;66.30
810;DHT22;387;48.772;9.186;2023-12-29T14:30:17;12.70;66.30
810;DHT22;387;48.772;9.186;2023-12-29T14:32:43;12.70;66.40
810;DHT22;387;48.772;9.186;2023-12-29T14:35:08;12.70;66.40
810;DHT22;387;48.772;9.186;2023-12-29T14:37:36;12.70;66.10
810;DHT22;387;48.772;9.186;2023-12-29T14:40:01;12.70;66.30
810;DHT22;387;48.772;9.186;2023-12-29T14:42:30;12.70;66.40
810;DHT22;387;48.772;9.186;2023-12-29T14:44:55;12.70;66.60
810;DHT22;387;48.772;9.186;2023-12-29T14:47:21;12.70;66.40
810;DHT22;387;48.772;9.186;2023-12-29T14:49:47;12.70;66.40
810;DHT22;387;48.772;9.186;2023-12-29T14:52:12;12.60;66.60
810;DHT22;387;48.772;9.186;2023-12-29T14:54:38;12.60;66.60
810;DHT22;387;48.772;9.186;2023-12-29T14:57:05;12.60;66.30
810;DHT22;387;48.772;9.186;2023-12-29T14:59:30;12.60;66.60
810;DHT22;387;48.772;9.186;2023-12-29T15:01:56;12.60;66.60
810;DHT22;387;48.772;9.186;2023-12-29T15:04:21;12.70;66.40
810;DHT22;387;48.772;9.186;2023-12-29T15:06:47;12.60;66.40
810;DHT22;387;48.772;9.186;2023-12-29T15:09:13;12.70;66.40
810;DHT22;387;48.772;9.186;2023-12-29T15:11:39;12.60;66.40
810;DHT22;387;48.772;9.186;2023-12-29T15:14:04;12.50;66.60
810;DHT22;387;48.772;9.186;2023-12-29T15:16:30;12.50;66.40
810;DHT22;387;48.772;9.186;2023-12-29T15:18:55;12.40;66.60
810;DHT22;387;48.772;9.186;2023-12-29T15:21:21;12.40;66.40
810;DHT22;387;48.772;9.186;2023-12-29T15:23:47;12.40;66.60
810;DHT22;387;48.772;9.186;2023-12-29T15:26:12;12.40;66.40
810;DHT22;387;48.772;9.186;2023-12-29T15:28:40;12.30;66.70
810;DHT22;387;48.772;9.186;2023-12-29T15:31:07;12.30;66.30
810;DHT22;387;48.772;9.186;2023-12-29T15:33:32;12.20;66.60
810;DHT22;387;48.772;9.186;2023-12-29T15:35:58;12.10;66.40
810;DHT22;387;48.772;9.186;2023-12-29T15:38:24;12.10;66.60
810;DHT22;387;48.772;9.186;2023-12-29T15:40:49;12.10;66.40
810;DHT22;387;48.772;9.186;2023-12-29T15:43:15;12.10;66.40
810;DHT22;387;48.772;9.186;2023-12-29T15:45:40;12.10;66.60
810;DHT22;387;48.772;9.186;2023-12-29T15:48:06;12.10;66.60
810;DHT22;387;48.772;9.186;2023-12-29T15:50:32;12.10;66.60
810;DHT22;387;48.772;9.186;2023-12-29T15:52:57;12.10;66.60
810;DHT22;387;48.772;9.186;2023-12-29T15:55:23;12.10;66.70
810;DHT22;387;48.772;9.186;2023-12-29T15:57:49;12.10;66.40
810;DHT22;387;48.772;9.186;2023-12-29T16:00:15;12.00;66.60
810;DHT22;387;48.772;9.186;2023-12-29T16:02:41;11.90;66.40
810;DHT22;387;48.772;9.186;2023-12-29T16:05:06;11.90;66.40
810;DHT22;387;48.772;9.186;2023-12-29T16:07:32;11.90;65.80
810;DHT22;387;48.772;9.186;2023-12-29T16:09:58;11.80;65.80
810;DHT22;387;48.772;9.186;2023-12-29T16:12:23;11.80;65.80
810;DHT22;387;48.772;9.186;2023-12-29T16:14:49;11.80;66.00
810;DHT22;387;48.772;9.186;2023-12-29T16:17:14;11.70;65.80
810;DHT22;387;48.772;9.186;2023-12-29T16:19:40;11.70;65.80
810;DHT22;387;48.772;9.186;2023-12-29T16:22:06;11.70;65.80
810;DHT22;387;48.772;9.186;2023-12-29T16:24:31;11.70;65.70
810;DHT22;387;48.772;9.186;2023-12-29T16:26:57;11.60;65.60
810;DHT22;387;48.772;9.186;2023-12-29T16:29:22;11.50;66.00
810;DHT22;387;48.772;9.186;2023-12-29T16:31:48;11.50;66.10
810;DHT22;387;48.772;9.186;2023-12-29T16:34:13;11.40;66.10
810;DHT22;387;48.772;9.186;2023-12-29T16:36:39;11.40;66.30
810;DHT22;387;48.772;9.186;2023-12-29T16:39:05;11.30;66.40
810;DHT22;387;48.772;9.186;2023-12-29T16:41:30;11.30;66.40
810;DHT22;387;48.772;9.186;2023-12-29T16:43:57;11.20;66.60
810;DHT22;387;48.772;9.186;2023-12-29T16:46:23;11.20;66.70
810;DHT22;387;48.772;9.186;2023-12-29T16:48:48;11.20;66.70
810;DHT22;387;48.772;9.186;2023-12-29T16:51:15;11.20;66.70
810;DHT22;387;48.772;9.186;2023-12-29T16:53:40;11.10;66.70
810;DHT22;387;48.772;9.186;2023-12-29T16:56:06;11.10;66.90
810;DHT22;387;48.772;9.186;2023-12-29T16:58:32;11.10;66.90
810;DHT22;387;48.772;9.186;2023-12-29T17:00:58;11.10;67.00